createdAt,value
2019-01-16T00:02:18.983Z,16.60
2019-01-16T00:04:52.277Z,16.43
2019-01-16T00:07:22.705Z,13.10
2019-01-16T00:09:55.793Z,12.53
2019-01-16T00:12:29.187Z,12.83
2019-01-16T00:14:59.513Z,12.90
2019-01-16T00:17:29.837Z,14.03
2019-01-16T00:20:00.264Z,11.50
2019-01-16T00:22:46.972Z,14.30
2019-01-16T00:25:32.350Z,11.30
2019-01-16T00:28:02.673Z,11.87
2019-01-16T00:30:48.150Z,9.70
2019-01-16T00:33:30.153Z,10.63
2019-01-16T00:36:00.575Z,9.83
2019-01-16T00:38:30.904Z,10.70
2019-01-16T00:41:01.327Z,12.50
2019-01-16T00:43:49.982Z,11.80
2019-01-16T00:46:32.617Z,11.60
2019-01-16T00:49:03.019Z,9.13
2019-01-16T00:51:33.344Z,8.83
2019-01-16T00:54:12.987Z,8.10
2019-01-16T00:56:59.695Z,11.20
2019-01-16T00:59:45.379Z,10.33
2019-01-16T01:02:15.705Z,7.90
2019-01-16T01:04:58.009Z,8.40
2019-01-16T01:07:46.661Z,8.50
2019-01-16T01:10:17.091Z,8.33
2019-01-16T01:12:59.495Z,9.07
2019-01-16T01:15:32.278Z,9.40
2019-01-16T01:18:02.601Z,9.90
2019-01-16T01:20:32.924Z,9.57
2019-01-16T01:23:03.248Z,9.43
2019-01-16T01:25:39.821Z,12.97
2019-01-16T01:28:13.320Z,10.50
2019-01-16T01:30:43.746Z,10.83
2019-01-16T01:33:19.804Z,8.87
2019-01-16T01:35:50.229Z,8.90
2019-01-16T01:38:23.423Z,10.43
2019-01-16T01:40:56.514Z,9.40
2019-01-16T01:43:26.938Z,12.50
2019-01-16T01:46:12.316Z,10.73
2019-01-16T01:48:42.744Z,10.17
2019-01-16T01:51:13.168Z,13.50
2019-01-16T01:54:01.617Z,13.90
2019-01-16T01:56:40.952Z,9.57
2019-01-16T01:59:29.199Z,10.70
2019-01-16T02:02:02.296Z,15.57
2019-01-16T02:04:38.654Z,13.23
2019-01-16T02:07:21.265Z,10.30
2019-01-16T02:10:00.598Z,10.63
2019-01-16T02:12:36.659Z,13.67
2019-01-16T02:15:25.415Z,10.67
2019-01-16T02:18:01.473Z,11.00
2019-01-16T02:20:31.899Z,10.73
2019-01-16T02:23:08.059Z,10.00
2019-01-16T02:25:38.487Z,11.93
2019-01-16T02:28:14.545Z,13.90
2019-01-16T02:31:01.357Z,13.03
2019-01-16T02:33:50.218Z,15.17
2019-01-16T02:36:32.623Z,11.70
2019-01-16T02:39:17.999Z,10.73
2019-01-16T02:41:57.335Z,11.90
2019-01-16T02:44:27.864Z,11.60
2019-01-16T02:46:58.086Z,17.10
2019-01-16T02:49:31.486Z,15.70
2019-01-16T02:52:10.716Z,15.70
2019-01-16T02:54:46.570Z,15.37
2019-01-16T02:57:16.996Z,18.10
2019-01-16T02:59:49.674Z,14.47
2019-01-16T03:02:22.662Z,17.67
2019-01-16T03:05:05.171Z,20.50
2019-01-16T03:07:47.681Z,15.70
2019-01-16T03:10:23.843Z,14.43
2019-01-16T03:13:03.177Z,19.00
2019-01-16T03:15:39.031Z,15.80
2019-01-16T03:18:15.091Z,22.70
2019-01-16T03:20:57.747Z,17.87
2019-01-16T03:23:40.725Z,18.20
2019-01-16T03:26:29.351Z,22.60
2019-01-16T03:29:05.846Z,30.67
2019-01-16T03:31:45.184Z,22.17
2019-01-16T03:34:32.011Z,21.40
2019-01-16T03:37:05.388Z,26.07
2019-01-16T03:39:41.566Z,26.13
2019-01-16T03:42:11.976Z,21.57
2019-01-16T03:44:51.107Z,25.17
2019-01-16T03:47:21.537Z,25.03
2019-01-16T03:49:51.758Z,23.13
2019-01-16T03:52:24.538Z,24.87
2019-01-16T03:54:57.831Z,26.20
2019-01-16T03:57:33.996Z,24.77
2019-01-16T04:00:19.368Z,27.70
2019-01-16T04:02:52.560Z,24.53
2019-01-16T04:05:25.853Z,27.87
2019-01-16T04:08:12.052Z,29.70
2019-01-16T04:10:48.417Z,31.10
2019-01-16T04:13:18.842Z,31.77
2019-01-16T04:15:49.065Z,27.50
2019-01-16T04:18:22.318Z,29.23
2019-01-16T04:20:55.652Z,28.80
2019-01-16T04:23:37.961Z,29.93
2019-01-16T04:26:26.409Z,35.03
2019-01-16T04:29:13.523Z,30.97
2019-01-16T04:32:01.878Z,29.60
2019-01-16T04:34:48.374Z,31.17
2019-01-16T04:37:27.505Z,27.53
2019-01-16T04:40:06.841Z,30.40
2019-01-16T04:42:37.174Z,32.93
2019-01-16T04:45:08.820Z,33.77
2019-01-16T04:47:39.350Z,30.90
2019-01-16T04:50:26.570Z,33.53
2019-01-16T04:52:57.201Z,28.47
2019-01-16T04:55:30.700Z,31.77
2019-01-16T04:58:18.840Z,32.60
2019-01-16T05:01:03.910Z,26.90
2019-01-16T05:03:37.413Z,28.07
2019-01-16T05:06:10.609Z,29.90
2019-01-16T05:08:43.695Z,28.10
2019-01-16T05:11:26.201Z,26.10
2019-01-16T05:13:56.731Z,27.80
2019-01-16T05:16:38.934Z,26.33
2019-01-16T05:19:15.092Z,21.23
2019-01-16T05:21:57.466Z,21.50
2019-01-16T05:24:27.823Z,22.70
2019-01-16T05:27:07.160Z,21.90
2019-01-16T05:29:43.321Z,20.70
2019-01-16T05:32:25.214Z,18.37
2019-01-16T05:34:55.640Z,19.00
2019-01-16T05:37:41.019Z,23.70
2019-01-16T05:40:28.136Z,20.33
2019-01-16T05:43:04.554Z,15.30
2019-01-16T05:45:40.768Z,21.03
2019-01-16T05:48:19.691Z,18.00
2019-01-16T05:51:08.244Z,16.47
2019-01-16T05:53:47.275Z,20.00
2019-01-16T05:56:23.124Z,21.03
2019-01-16T05:59:02.665Z,20.43
2019-01-16T06:01:39.030Z,21.97
2019-01-16T06:04:09.358Z,17.40
2019-01-16T06:06:45.721Z,18.63
2019-01-16T06:09:17.181Z,19.73
2019-01-16T06:12:03.709Z,16.87
2019-01-16T06:14:33.999Z,16.83
2019-01-16T06:17:19.275Z,18.93
2019-01-16T06:19:54.014Z,17.37
2019-01-16T06:22:21.665Z,18.77
2019-01-16T06:25:08.281Z,19.93
2019-01-16T06:27:38.698Z,20.00
2019-01-16T06:30:12.302Z,20.60
2019-01-16T06:32:51.734Z,18.00
2019-01-16T06:35:30.966Z,18.40
2019-01-16T06:38:07.539Z,19.63
2019-01-16T06:40:37.968Z,22.03
2019-01-16T06:43:08.391Z,21.23
2019-01-16T06:45:38.819Z,25.50
2019-01-16T06:48:09.245Z,27.60
2019-01-16T06:50:39.465Z,23.30
2019-01-16T06:53:12.761Z,20.70
2019-01-16T06:55:58.036Z,19.20
2019-01-16T06:58:33.991Z,20.90
2019-01-16T07:01:19.675Z,21.80
2019-01-16T07:03:52.606Z,21.67
2019-01-16T07:06:22.885Z,30.90
2019-01-16T07:09:09.694Z,49.73
2019-01-16T07:11:42.987Z,27.57
2019-01-16T07:14:28.671Z,45.03
2019-01-16T07:17:15.150Z,32.13
2019-01-16T07:19:57.201Z,35.77
2019-01-16T07:22:27.468Z,30.37
2019-01-16T07:25:12.682Z,22.43
2019-01-16T07:27:58.824Z,23.23
2019-01-16T07:30:41.474Z,20.40
2019-01-16T07:33:30.127Z,16.73
2019-01-16T07:36:09.336Z,19.07
2019-01-16T07:38:42.531Z,20.03
2019-01-16T07:41:24.414Z,13.83
2019-01-16T07:43:57.501Z,18.50
2019-01-16T07:46:43.911Z,15.40
2019-01-16T07:49:20.004Z,15.20
2019-01-16T07:52:06.466Z,13.43
2019-01-16T07:54:53.432Z,18.53
2019-01-16T07:57:23.683Z,12.93
2019-01-16T07:59:59.603Z,14.70
2019-01-16T08:02:32.535Z,13.20
2019-01-16T08:05:11.928Z,14.03
2019-01-16T08:07:48.091Z,12.47
2019-01-16T08:10:30.485Z,11.17
2019-01-16T08:13:16.908Z,15.67
2019-01-16T08:15:56.214Z,15.67
2019-01-16T08:18:29.225Z,11.30
2019-01-16T08:21:11.317Z,12.20
2019-01-16T08:23:41.552Z,9.80
2019-01-16T08:26:14.500Z,12.47
2019-01-16T08:28:50.658Z,12.07
2019-01-16T08:31:29.635Z,13.77
2019-01-16T08:34:05.840Z,13.23
2019-01-16T08:36:36.130Z,11.50
2019-01-16T08:39:15.030Z,19.60
2019-01-16T08:41:51.441Z,11.70
2019-01-16T08:44:21.689Z,13.77
2019-01-16T08:46:51.896Z,11.20
2019-01-16T08:49:37.428Z,10.27
2019-01-16T08:52:19.978Z,14.63
2019-01-16T08:54:53.185Z,11.30
2019-01-16T08:57:23.412Z,10.40
2019-01-16T08:59:53.684Z,9.90
2019-01-16T09:02:29.633Z,12.40
2019-01-16T09:05:08.672Z,9.80
2019-01-16T09:07:38.958Z,9.63
2019-01-16T09:10:11.819Z,9.87
2019-01-16T09:12:48.003Z,8.60
2019-01-16T09:15:24.012Z,14.93
2019-01-16T09:17:54.270Z,14.50
2019-01-16T09:20:30.287Z,8.10
2019-01-16T09:23:00.561Z,8.67
2019-01-16T09:25:39.298Z,8.60
2019-01-16T09:28:09.585Z,7.77
2019-01-16T09:30:39.802Z,7.97
2019-01-16T09:33:15.792Z,7.20
2019-01-16T09:35:48.454Z,8.93
2019-01-16T09:38:24.661Z,7.53
2019-01-16T09:40:54.894Z,8.60
2019-01-16T09:43:25.086Z,7.77
2019-01-16T09:46:11.765Z,9.00
2019-01-16T09:48:58.152Z,8.17
2019-01-16T09:51:30.854Z,11.60
2019-01-16T09:54:01.086Z,9.10
2019-01-16T09:56:33.495Z,7.43
2019-01-16T09:59:20.345Z,8.60
2019-01-16T10:02:07.001Z,7.60
2019-01-16T10:04:53.089Z,11.63
2019-01-16T10:07:41.710Z,9.60
2019-01-16T10:10:31.299Z,9.33
2019-01-16T10:13:01.725Z,6.83
2019-01-16T10:15:34.813Z,7.00
2019-01-16T10:18:05.093Z,9.60
2019-01-16T10:20:35.356Z,7.20
2019-01-16T10:23:14.645Z,10.83
2019-01-16T10:25:50.644Z,6.80
2019-01-16T10:28:23.836Z,8.10
2019-01-16T10:30:56.935Z,7.07
2019-01-16T10:33:39.137Z,6.70
2019-01-16T10:36:09.510Z,7.30
2019-01-16T10:38:39.698Z,8.10
2019-01-16T10:41:21.933Z,8.23
2019-01-16T10:43:58.398Z,8.03
2019-01-16T10:46:45.007Z,6.93
2019-01-16T10:49:15.246Z,7.40
2019-01-16T10:51:54.165Z,7.00
2019-01-16T10:54:39.704Z,6.90
2019-01-16T10:57:21.915Z,9.13
2019-01-16T10:59:58.109Z,9.30
2019-01-16T11:02:31.051Z,6.80
2019-01-16T11:05:01.381Z,6.83
2019-01-16T11:07:43.581Z,6.20
2019-01-16T11:10:17.254Z,6.33
2019-01-16T11:12:53.717Z,6.30
2019-01-16T11:15:23.980Z,6.30
2019-01-16T11:17:54.195Z,6.53
2019-01-16T11:20:27.435Z,6.37
2019-01-16T11:23:13.595Z,6.33
2019-01-16T11:25:43.850Z,8.80
2019-01-16T11:28:30.197Z,6.27
2019-01-16T11:31:00.527Z,5.60
2019-01-16T11:33:36.658Z,6.40
2019-01-16T11:36:07.537Z,6.73
2019-01-16T11:38:54.195Z,5.83
2019-01-16T11:41:30.505Z,5.63
2019-01-16T11:44:15.994Z,5.73
2019-01-16T11:46:49.208Z,6.33
2019-01-16T11:49:35.827Z,8.10
2019-01-16T11:52:06.127Z,4.60
2019-01-16T11:54:42.059Z,4.27
2019-01-16T11:57:21.470Z,7.83
2019-01-16T11:59:54.219Z,7.10
2019-01-16T12:02:38.477Z,5.97
2019-01-16T12:05:26.908Z,10.53
2019-01-16T12:07:57.190Z,5.63
2019-01-16T12:10:31.709Z,9.63
2019-01-16T12:13:05.145Z,7.20
2019-01-16T12:15:41.179Z,5.70
2019-01-16T12:18:11.719Z,5.70
2019-01-16T12:20:41.936Z,4.83
2019-01-16T12:23:13.896Z,4.93
2019-01-16T12:25:49.846Z,4.03
2019-01-16T12:28:20.223Z,4.90
2019-01-16T12:30:51.538Z,4.50
2019-01-16T12:33:21.780Z,6.67
2019-01-16T12:35:51.980Z,4.43
2019-01-16T12:38:22.260Z,6.47
2019-01-16T12:41:04.707Z,5.97
2019-01-16T12:43:34.996Z,4.67
2019-01-16T12:46:05.298Z,5.50
2019-01-16T12:48:52.143Z,4.47
2019-01-16T12:51:33.751Z,4.80
2019-01-16T12:54:05.703Z,6.63
2019-01-16T12:56:44.847Z,11.07
2019-01-16T12:59:18.206Z,7.60
2019-01-16T13:01:54.040Z,4.17
2019-01-16T13:04:24.755Z,7.00
2019-01-16T13:07:13.248Z,5.00
2019-01-16T13:09:49.716Z,6.40
2019-01-16T13:12:20.040Z,4.03
2019-01-16T13:14:50.367Z,3.10
2019-01-16T13:17:20.688Z,5.63
2019-01-16T13:20:08.929Z,3.50
2019-01-16T13:22:39.235Z,4.80
2019-01-16T13:25:21.742Z,3.50
2019-01-16T13:27:57.891Z,3.10
2019-01-16T13:30:28.139Z,4.70
2019-01-16T13:33:14.772Z,4.57
2019-01-16T13:35:51.116Z,3.00
2019-01-16T13:38:38.035Z,7.60
2019-01-16T13:41:14.605Z,3.30
2019-01-16T13:43:50.791Z,4.50
2019-01-16T13:46:23.811Z,2.70
2019-01-16T13:48:56.991Z,3.10
2019-01-16T13:51:46.326Z,3.10
2019-01-16T13:54:20.332Z,3.63
2019-01-16T13:57:02.368Z,3.17
2019-01-16T13:59:38.385Z,3.50
2019-01-16T14:02:11.364Z,3.97
2019-01-16T14:04:41.620Z,2.90
2019-01-16T14:07:17.750Z,3.20
2019-01-16T14:09:57.283Z,14.00
2019-01-16T14:12:27.560Z,4.50
2019-01-16T14:15:03.454Z,10.13
2019-01-16T14:17:49.851Z,5.60
2019-01-16T14:20:35.028Z,4.23
2019-01-16T14:23:05.434Z,6.13
2019-01-16T14:25:44.385Z,4.30
2019-01-16T14:28:26.864Z,4.60
2019-01-16T14:31:03.008Z,3.47
2019-01-16T14:33:49.520Z,8.27
2019-01-16T14:36:22.509Z,4.83
2019-01-16T14:39:11.057Z,5.03
2019-01-16T14:41:43.994Z,4.93
2019-01-16T14:44:20.344Z,4.53
2019-01-16T14:47:05.487Z,6.53
2019-01-16T14:49:50.945Z,4.53
2019-01-16T14:52:37.628Z,3.50
2019-01-16T14:55:26.913Z,4.70
2019-01-16T14:57:57.579Z,3.47
2019-01-16T15:00:30.622Z,6.40
2019-01-16T15:03:18.775Z,3.50
2019-01-16T15:06:01.062Z,3.77
2019-01-16T15:08:31.325Z,6.10
2019-01-16T15:11:01.586Z,4.73
2019-01-16T15:13:38.068Z,4.53
2019-01-16T15:16:17.487Z,10.00
2019-01-16T15:18:56.406Z,4.37
2019-01-16T15:21:35.614Z,6.60
2019-01-16T15:24:05.933Z,3.50
2019-01-16T15:26:36.123Z,5.23
2019-01-16T15:29:06.479Z,5.10
2019-01-16T15:31:39.637Z,5.77
2019-01-16T15:34:09.908Z,4.87
2019-01-16T15:36:40.111Z,8.27
2019-01-16T15:39:12.302Z,5.27
2019-01-16T15:41:45.089Z,7.20
2019-01-16T15:44:15.320Z,6.23
2019-01-16T15:46:47.316Z,8.47
2019-01-16T15:49:20.704Z,9.20
2019-01-16T15:51:51.009Z,8.87
2019-01-16T15:54:37.565Z,15.63
2019-01-16T15:57:07.811Z,13.17
2019-01-16T15:59:38.027Z,4.90
2019-01-16T16:02:26.415Z,11.03
2019-01-16T16:05:11.885Z,11.70
2019-01-16T16:07:42.185Z,7.90
2019-01-16T16:10:21.910Z,12.53
2019-01-16T16:12:55.086Z,5.07
2019-01-16T16:15:41.539Z,6.40
2019-01-16T16:18:21.081Z,8.10
2019-01-16T16:20:56.846Z,8.20
2019-01-16T16:23:39.014Z,5.63
2019-01-16T16:26:09.279Z,6.07
2019-01-16T16:28:42.340Z,6.80
2019-01-16T16:31:15.491Z,6.70
2019-01-16T16:34:03.709Z,7.27
2019-01-16T16:36:50.351Z,8.47
2019-01-16T16:39:29.253Z,10.23
2019-01-16T16:42:08.081Z,4.87
2019-01-16T16:44:56.495Z,6.40
2019-01-16T16:47:38.491Z,6.03
2019-01-16T16:50:11.318Z,5.20
2019-01-16T16:52:44.572Z,5.03
2019-01-16T16:55:14.824Z,7.23
2019-01-16T16:58:01.405Z,8.33
2019-01-16T17:00:34.469Z,8.40
2019-01-16T17:03:04.723Z,8.57
2019-01-16T17:05:37.355Z,6.90
2019-01-16T17:08:07.595Z,7.50
2019-01-16T17:10:37.815Z,6.80
2019-01-16T17:13:11.347Z,10.33
2019-01-16T17:15:44.437Z,9.17
2019-01-16T17:18:14.666Z,5.10
2019-01-16T17:20:47.416Z,8.93
2019-01-16T17:23:34.108Z,6.10
2019-01-16T17:26:04.418Z,5.60
2019-01-16T17:28:43.362Z,8.17
2019-01-16T17:31:16.272Z,10.20
2019-01-16T17:33:55.564Z,12.00
2019-01-16T17:36:25.882Z,7.27
2019-01-16T17:38:58.941Z,20.60
2019-01-16T17:41:31.906Z,7.30
2019-01-16T17:44:18.556Z,7.67
2019-01-16T17:47:04.939Z,14.43
2019-01-16T17:49:37.836Z,9.27
2019-01-16T17:52:24.015Z,11.00
2019-01-16T17:55:00.233Z,9.53
2019-01-16T17:57:39.179Z,8.47
2019-01-16T18:00:28.539Z,15.23
2019-01-16T18:03:14.027Z,7.97
2019-01-16T18:05:56.640Z,7.97
2019-01-16T18:08:28.680Z,12.10
2019-01-16T18:10:58.863Z,9.53
2019-01-16T18:13:29.144Z,11.03
2019-01-16T18:16:15.734Z,19.20
2019-01-16T18:18:45.978Z,16.10
2019-01-16T18:21:21.941Z,7.07
2019-01-16T18:24:09.937Z,12.33
2019-01-16T18:26:40.229Z,8.27
2019-01-16T18:29:10.455Z,15.73
2019-01-16T18:31:40.699Z,7.70
2019-01-16T18:34:27.413Z,20.90
2019-01-16T18:37:00.536Z,7.90
2019-01-16T18:39:40.075Z,10.57
2019-01-16T18:42:19.515Z,8.00
2019-01-16T18:44:52.957Z,10.10
2019-01-16T18:47:25.873Z,7.53
2019-01-16T18:50:12.128Z,11.00
2019-01-16T18:52:51.760Z,8.30
2019-01-16T18:55:20.312Z,12.67
2019-01-16T18:57:53.408Z,8.30
2019-01-16T19:00:26.396Z,8.87
2019-01-16T19:02:56.822Z,13.17
2019-01-16T19:05:27.045Z,10.07
2019-01-16T19:08:12.424Z,10.93
2019-01-16T19:10:45.616Z,10.90
2019-01-16T19:13:21.676Z,12.03
2019-01-16T19:15:58.169Z,7.60
2019-01-16T19:18:40.221Z,10.20
2019-01-16T19:21:25.532Z,10.10
2019-01-16T19:23:55.844Z,11.20
2019-01-16T19:26:41.420Z,10.27
2019-01-16T19:29:11.845Z,11.63
2019-01-16T19:31:45.662Z,10.37
2019-01-16T19:34:15.976Z,12.73
2019-01-16T19:36:47.941Z,12.23
2019-01-16T19:39:24.206Z,14.90
2019-01-16T19:41:56.987Z,13.10
2019-01-16T19:44:42.071Z,12.80
2019-01-16T19:47:12.377Z,9.77
2019-01-16T19:49:51.276Z,12.67
2019-01-16T19:52:21.531Z,11.80
2019-01-16T19:55:08.410Z,10.10
2019-01-16T19:57:38.617Z,9.77
2019-01-16T20:00:11.996Z,11.20
2019-01-16T20:02:50.910Z,12.60
2019-01-16T20:05:32.879Z,10.90
2019-01-16T20:08:12.142Z,13.03
2019-01-16T20:10:45.399Z,12.00
2019-01-16T20:13:18.601Z,9.60
2019-01-16T20:15:54.387Z,13.97
2019-01-16T20:18:30.347Z,14.57
2019-01-16T20:21:12.264Z,13.37
2019-01-16T20:23:48.150Z,12.00
2019-01-16T20:26:18.436Z,13.20
2019-01-16T20:28:57.361Z,9.83
2019-01-16T20:31:33.123Z,20.77
2019-01-16T20:34:03.530Z,16.43
2019-01-16T20:36:36.532Z,14.77
2019-01-16T20:39:14.574Z,15.83
2019-01-16T20:41:47.794Z,17.47
2019-01-16T20:44:24.276Z,13.53
2019-01-16T20:47:00.567Z,12.20
2019-01-16T20:49:46.140Z,10.83
2019-01-16T20:52:16.460Z,13.47
2019-01-16T20:54:46.669Z,8.73
2019-01-16T20:57:16.910Z,11.73
2019-01-16T20:59:47.141Z,10.17
2019-01-16T21:02:26.440Z,18.10
2019-01-16T21:05:05.312Z,13.73
2019-01-16T21:07:38.322Z,11.47
2019-01-16T21:10:17.446Z,11.47
2019-01-16T21:12:50.641Z,14.80
2019-01-16T21:15:29.975Z,19.13
2019-01-16T21:18:12.576Z,15.93
2019-01-16T21:20:42.912Z,14.47
2019-01-16T21:23:14.043Z,20.37
2019-01-16T21:25:57.588Z,21.10
2019-01-16T21:28:27.910Z,15.30
2019-01-16T21:31:09.909Z,14.37
2019-01-16T21:33:48.894Z,14.37
2019-01-16T21:36:19.799Z,16.13
2019-01-16T21:38:49.997Z,15.37
2019-01-16T21:41:29.457Z,13.60
2019-01-16T21:44:15.949Z,15.50
2019-01-16T21:46:55.167Z,13.20
2019-01-16T21:49:28.559Z,13.17
2019-01-16T21:52:01.790Z,17.10
2019-01-16T21:54:44.261Z,18.20
2019-01-16T21:57:26.829Z,15.37
2019-01-16T22:00:09.042Z,18.53
2019-01-16T22:02:39.262Z,22.30
2019-01-16T22:05:10.554Z,21.13
2019-01-16T22:07:46.567Z,18.17
2019-01-16T22:10:19.482Z,17.33
2019-01-16T22:12:55.894Z,14.40
2019-01-16T22:15:42.378Z,15.27
2019-01-16T22:18:12.603Z,23.60
2019-01-16T22:20:52.106Z,14.70
2019-01-16T22:23:24.785Z,18.83
2019-01-16T22:25:57.924Z,13.57
2019-01-16T22:28:28.164Z,13.60
2019-01-16T22:31:13.287Z,13.17
2019-01-16T22:33:43.611Z,13.70
2019-01-16T22:36:17.007Z,13.87
2019-01-16T22:38:51.074Z,20.03
2019-01-16T22:41:21.498Z,13.77
2019-01-16T22:43:57.590Z,15.17
2019-01-16T22:46:27.837Z,14.30
2019-01-16T22:48:58.033Z,17.17
2019-01-16T22:51:28.264Z,11.90
2019-01-16T22:54:01.145Z,10.40
2019-01-16T22:56:31.433Z,12.40
2019-01-16T22:59:04.591Z,13.80
2019-01-16T23:01:49.660Z,13.27
2019-01-16T23:04:35.949Z,15.73
2019-01-16T23:07:06.367Z,13.37
2019-01-16T23:09:39.407Z,11.27
2019-01-16T23:12:26.065Z,15.33
2019-01-16T23:14:59.354Z,13.63
2019-01-16T23:17:38.495Z,17.33
2019-01-16T23:20:26.836Z,15.37
2019-01-16T23:23:02.949Z,12.90
2019-01-16T23:25:33.223Z,11.60
2019-01-16T23:28:03.488Z,14.27
2019-01-16T23:30:48.707Z,17.63
2019-01-16T23:33:18.925Z,25.57
2019-01-16T23:35:49.160Z,14.20
2019-01-16T23:38:19.373Z,12.40
2019-01-16T23:41:04.345Z,11.60
2019-01-16T23:43:43.134Z,13.47
2019-01-16T23:46:16.084Z,10.83
2019-01-16T23:48:56.986Z,16.50
2019-01-16T23:51:39.519Z,14.13
2019-01-16T23:54:18.959Z,12.77
2019-01-16T23:56:54.709Z,11.53
2019-01-16T23:59:37.017Z,13.97
